createdAt,value
2022-09-17T00:01:22.629Z,89.24
2022-09-17T00:03:52.465Z,90.27
2022-09-17T00:06:20.523Z,92.40
2022-09-17T00:08:48.597Z,89.74
2022-09-17T00:11:21.029Z,91.56
2022-09-17T00:13:49.820Z,92.32
2022-09-17T00:16:25.883Z,89.46
2022-09-17T00:18:54.125Z,89.54
2022-09-17T00:21:22.871Z,88.13
2022-09-17T00:23:54.714Z,89.93
2022-09-17T00:26:22.598Z,87.27
2022-09-17T00:28:51.647Z,90.15
2022-09-17T00:31:19.513Z,88.22
2022-09-17T00:33:48.765Z,88.75
2022-09-17T00:36:16.618Z,89.09
2022-09-17T00:38:44.556Z,89.92
2022-09-17T00:41:12.277Z,91.15
2022-09-17T00:43:43.537Z,90.63
2022-09-17T00:46:23.140Z,89.74
2022-09-17T00:48:53.408Z,90.20
2022-09-17T00:51:26.600Z,91.91
2022-09-17T00:53:54.397Z,91.13
2022-09-17T00:56:25.552Z,91.85
2022-09-17T00:58:54.462Z,90.47
2022-09-17T01:01:22.784Z,91.16
2022-09-17T01:03:52.337Z,89.62
2022-09-17T01:06:28.274Z,91.65
2022-09-17T01:09:19.658Z,90.24
2022-09-17T01:12:02.226Z,92.51
2022-09-17T01:14:44.326Z,92.28
2022-09-17T01:17:19.777Z,90.82
2022-09-17T01:20:16.582Z,93.87
2022-09-17T01:22:58.150Z,94.06
2022-09-17T01:25:31.174Z,93.64
2022-09-17T01:28:33.885Z,91.59
2022-09-17T01:31:23.709Z,93.67
2022-09-17T01:34:01.450Z,93.47
2022-09-17T01:36:57.382Z,92.82
2022-09-17T01:39:34.716Z,94.44
2022-09-17T01:42:12.815Z,92.89
2022-09-17T01:44:51.720Z,94.13
2022-09-17T01:47:23.966Z,95.44
2022-09-17T01:49:54.865Z,94.39
2022-09-17T01:52:24.266Z,94.41
2022-09-17T01:54:57.865Z,94.11
2022-09-17T01:57:30.365Z,91.38
2022-09-17T02:00:02.815Z,91.85
2022-09-17T02:02:36.630Z,89.07
2022-09-17T02:05:09.499Z,94.17
2022-09-17T02:07:42.949Z,93.66
2022-09-17T02:10:13.296Z,95.37
2022-09-17T02:12:44.979Z,94.73
2022-09-17T02:15:17.886Z,95.51
2022-09-17T02:17:50.898Z,95.48
2022-09-17T02:20:22.940Z,97.13
2022-09-17T02:22:57.184Z,96.87
2022-09-17T02:25:29.743Z,98.46
2022-09-17T02:28:03.623Z,97.17
2022-09-17T02:30:32.099Z,92.20
2022-09-17T02:33:02.926Z,92.96
2022-09-17T02:35:32.038Z,94.15
2022-09-17T02:37:59.815Z,95.72
2022-09-17T02:40:32.752Z,93.43
2022-09-17T02:43:11.962Z,95.14
2022-09-17T02:45:50.478Z,96.05
2022-09-17T02:48:40.906Z,93.50
2022-09-17T02:51:33.606Z,95.90
2022-09-17T02:54:11.894Z,96.78
2022-09-17T02:56:47.833Z,95.80
2022-09-17T02:59:22.293Z,96.07
2022-09-17T03:01:56.358Z,95.19
2022-09-17T03:04:28.888Z,94.35
2022-09-17T03:06:58.622Z,94.87
2022-09-17T03:09:26.464Z,94.41
2022-09-17T03:11:54.195Z,97.26
2022-09-17T03:14:21.901Z,95.88
2022-09-17T03:16:49.670Z,96.59
2022-09-17T03:19:17.425Z,98.47
2022-09-17T03:21:46.802Z,97.84
2022-09-17T03:24:14.482Z,97.10
2022-09-17T03:26:42.240Z,96.82
2022-09-17T03:29:10.001Z,95.49
2022-09-17T03:31:37.842Z,97.03
2022-09-17T03:34:05.797Z,97.86
2022-09-17T03:36:33.466Z,98.97
2022-09-17T03:39:02.677Z,99.91
2022-09-17T03:41:30.362Z,97.31
2022-09-17T03:43:58.166Z,95.75
2022-09-17T03:46:26.030Z,96.13
2022-09-17T03:48:53.867Z,94.76
2022-09-17T03:51:21.635Z,94.36
2022-09-17T03:53:49.638Z,95.42
2022-09-17T03:56:18.766Z,96.53
2022-09-17T03:58:46.588Z,95.89
2022-09-17T04:01:14.752Z,94.14
2022-09-17T04:03:42.597Z,95.72
2022-09-17T04:06:10.309Z,95.86
2022-09-17T04:08:38.038Z,97.46
2022-09-17T04:11:07.767Z,98.47
2022-09-17T04:13:37.248Z,100.00
2022-09-17T04:16:05.338Z,99.78
2022-09-17T04:18:33.274Z,99.13
2022-09-17T04:21:01.200Z,96.71
2022-09-17T04:23:28.949Z,96.80
2022-09-17T04:25:56.643Z,95.99
2022-09-17T04:28:24.424Z,95.52
2022-09-17T04:30:53.567Z,96.09
2022-09-17T04:33:21.337Z,96.17
2022-09-17T04:35:49.315Z,93.78
2022-09-17T04:38:18.618Z,95.45
2022-09-17T04:40:46.957Z,94.99
2022-09-17T04:43:15.001Z,96.65
2022-09-17T04:45:42.711Z,95.64
2022-09-17T04:48:11.765Z,96.27
2022-09-17T04:50:39.485Z,97.11
2022-09-17T04:53:07.228Z,96.16
2022-09-17T04:55:34.943Z,96.92
2022-09-17T04:58:02.677Z,96.73
2022-09-17T05:00:30.880Z,96.55
2022-09-17T05:02:58.731Z,99.33
2022-09-17T05:05:28.042Z,99.28
2022-09-17T05:07:55.745Z,95.69
2022-09-17T05:10:24.610Z,95.45
2022-09-17T05:12:53.225Z,93.59
2022-09-17T05:15:21.409Z,95.30
2022-09-17T05:17:49.122Z,97.53
2022-09-17T05:20:18.000Z,98.85
2022-09-17T05:22:48.949Z,100.00
2022-09-17T05:25:18.234Z,97.72
2022-09-17T05:27:46.365Z,95.68
2022-09-17T05:30:14.363Z,94.91
2022-09-17T05:32:42.363Z,93.84
2022-09-17T05:35:11.248Z,96.38
2022-09-17T05:37:39.054Z,96.66
2022-09-17T05:40:10.897Z,97.08
2022-09-17T05:42:38.807Z,97.07
2022-09-17T05:45:08.033Z,96.68
2022-09-17T05:47:36.278Z,96.18
2022-09-17T05:50:04.346Z,95.29
2022-09-17T05:52:32.427Z,94.95
2022-09-17T05:55:00.209Z,96.34
2022-09-17T05:57:31.398Z,96.70
2022-09-17T05:59:59.383Z,99.50
2022-09-17T06:02:27.084Z,94.26
2022-09-17T06:04:55.301Z,94.75
2022-09-17T06:07:23.006Z,99.01
2022-09-17T06:09:50.706Z,99.04
2022-09-17T06:12:18.457Z,96.52
2022-09-17T06:14:47.804Z,96.06
2022-09-17T06:17:17.973Z,95.96
2022-09-17T06:19:49.247Z,98.60
2022-09-17T06:22:19.251Z,98.55
2022-09-17T06:24:47.032Z,98.41
2022-09-17T06:27:15.001Z,96.23
2022-09-17T06:29:42.697Z,95.39
2022-09-17T06:32:13.023Z,94.89
2022-09-17T06:34:40.912Z,94.52
2022-09-17T06:37:08.670Z,94.74
2022-09-17T06:39:36.743Z,94.03
2022-09-17T06:42:04.673Z,93.66
2022-09-17T06:44:32.350Z,93.82
2022-09-17T06:47:00.318Z,93.62
2022-09-17T06:49:31.107Z,94.14
2022-09-17T06:51:58.983Z,93.22
2022-09-17T06:54:26.770Z,93.06
2022-09-17T06:56:54.494Z,92.20
2022-09-17T06:59:22.320Z,94.31
2022-09-17T07:01:50.115Z,92.76
2022-09-17T07:04:18.933Z,92.42
2022-09-17T07:06:48.145Z,91.62
2022-09-17T07:09:15.943Z,91.19
2022-09-17T07:11:43.761Z,92.44
2022-09-17T07:14:11.785Z,92.09
2022-09-17T07:16:39.525Z,91.28
2022-09-17T07:19:08.979Z,91.32
2022-09-17T07:21:36.790Z,90.61
2022-09-17T07:24:06.351Z,91.66
2022-09-17T07:26:34.111Z,89.45
2022-09-17T07:29:01.860Z,91.57
2022-09-17T07:31:29.685Z,88.02
2022-09-17T07:33:57.414Z,87.07
2022-09-17T07:36:25.172Z,89.09
2022-09-17T07:38:52.870Z,88.39
2022-09-17T07:41:21.984Z,86.84
2022-09-17T07:43:49.794Z,86.80
2022-09-17T07:46:19.385Z,88.37
2022-09-17T07:48:47.802Z,88.94
2022-09-17T07:51:17.466Z,89.81
2022-09-17T07:53:45.648Z,88.38
2022-09-17T07:56:13.554Z,89.87
2022-09-17T07:58:42.842Z,87.46
2022-09-17T08:01:12.778Z,85.60
2022-09-17T08:03:41.209Z,84.56
2022-09-17T08:06:10.470Z,84.25
2022-09-17T08:08:39.468Z,86.51
2022-09-17T08:11:09.978Z,85.01
2022-09-17T08:13:38.110Z,84.24
2022-09-17T08:16:10.095Z,81.34
2022-09-17T08:18:38.045Z,81.37
2022-09-17T08:21:07.468Z,78.71
2022-09-17T08:23:37.439Z,79.54
2022-09-17T08:26:06.093Z,78.65
2022-09-17T08:28:34.024Z,77.25
2022-09-17T08:31:03.402Z,77.87
2022-09-17T08:33:33.926Z,77.57
2022-09-17T08:36:02.245Z,76.40
2022-09-17T08:38:37.195Z,74.04
2022-09-17T08:41:22.111Z,75.19
2022-09-17T08:43:58.315Z,73.64
2022-09-17T08:46:27.633Z,71.39
2022-09-17T08:49:06.641Z,68.39
2022-09-17T08:51:44.701Z,69.41
2022-09-17T08:54:19.630Z,67.58
2022-09-17T08:56:57.547Z,66.32
2022-09-17T08:59:32.557Z,63.26
2022-09-17T09:02:08.311Z,64.61
2022-09-17T09:04:59.591Z,65.01
2022-09-17T09:07:30.322Z,60.44
2022-09-17T09:10:09.529Z,61.11
2022-09-17T09:12:38.915Z,58.87
2022-09-17T09:15:18.300Z,57.54
2022-09-17T09:17:50.938Z,56.27
2022-09-17T09:20:29.861Z,56.47
2022-09-17T09:22:59.162Z,57.11
2022-09-17T09:25:32.226Z,57.02
2022-09-17T09:28:12.198Z,55.70
2022-09-17T09:30:51.597Z,56.78
2022-09-17T09:33:25.233Z,55.39
2022-09-17T09:35:54.449Z,56.08
2022-09-17T09:38:32.310Z,55.14
2022-09-17T09:41:08.879Z,53.89
2022-09-17T09:44:02.653Z,56.22
2022-09-17T09:46:44.486Z,53.68
2022-09-17T09:49:23.764Z,54.58
2022-09-17T09:52:06.642Z,54.22
2022-09-17T09:54:49.140Z,53.20
2022-09-17T09:57:19.981Z,51.98
2022-09-17T09:59:47.796Z,52.81
2022-09-17T10:02:15.604Z,51.53
2022-09-17T10:04:43.462Z,50.59
2022-09-17T10:07:12.961Z,51.87
2022-09-17T10:09:47.394Z,50.99
2022-09-17T10:12:19.284Z,53.95
2022-09-17T10:14:47.734Z,53.05
2022-09-17T10:17:23.529Z,52.25
2022-09-17T10:20:17.307Z,51.73
2022-09-17T10:22:49.964Z,51.20
2022-09-17T10:25:31.427Z,51.17
2022-09-17T10:28:01.859Z,51.77
2022-09-17T10:30:29.673Z,50.85
2022-09-17T10:33:21.292Z,50.96
2022-09-17T10:35:58.309Z,50.94
2022-09-17T10:38:36.557Z,49.98
2022-09-17T10:41:16.751Z,51.40
2022-09-17T10:43:45.065Z,51.21
2022-09-17T10:46:17.785Z,51.06
2022-09-17T10:48:57.378Z,49.75
2022-09-17T10:51:26.789Z,48.54
2022-09-17T10:54:16.173Z,49.21
2022-09-17T10:56:48.422Z,50.71
2022-09-17T10:59:45.051Z,50.07
2022-09-17T11:02:40.496Z,49.74
2022-09-17T11:05:29.219Z,47.76
2022-09-17T11:08:07.144Z,45.81
2022-09-17T11:10:42.477Z,46.64
2022-09-17T11:13:25.790Z,46.19
2022-09-17T11:16:16.170Z,47.11
2022-09-17T11:18:46.601Z,47.33
2022-09-17T11:21:41.265Z,47.88
2022-09-17T11:24:46.633Z,48.13
2022-09-17T11:27:35.833Z,46.49
2022-09-17T11:30:11.364Z,47.89
2022-09-17T11:32:54.653Z,47.07
2022-09-17T11:35:26.633Z,46.54
2022-09-17T11:38:02.414Z,43.95
2022-09-17T11:40:41.025Z,45.45
2022-09-17T11:43:19.575Z,46.90
2022-09-17T11:45:57.783Z,48.16
2022-09-17T11:48:32.923Z,48.10
2022-09-17T11:51:07.916Z,48.29
2022-09-17T11:53:39.286Z,49.81
2022-09-17T11:56:16.744Z,46.74
2022-09-17T11:58:52.358Z,48.77
2022-09-17T12:01:28.435Z,47.22
2022-09-17T12:04:01.076Z,45.93
2022-09-17T12:06:38.158Z,46.20
2022-09-17T12:09:14.638Z,46.77
2022-09-17T12:11:48.281Z,46.11
2022-09-17T12:14:24.520Z,46.85
2022-09-17T12:16:58.522Z,46.52
2022-09-17T12:19:32.160Z,45.16
2022-09-17T12:22:07.108Z,45.65
2022-09-17T12:24:34.949Z,43.93
2022-09-17T12:27:15.577Z,45.56
2022-09-17T12:30:10.589Z,45.74
2022-09-17T12:33:03.940Z,43.82
2022-09-17T12:36:05.225Z,44.09
2022-09-17T12:38:53.696Z,46.00
2022-09-17T12:41:25.555Z,46.12
2022-09-17T12:44:07.535Z,45.26
2022-09-17T12:46:55.518Z,44.71
2022-09-17T12:49:50.193Z,44.17
2022-09-17T12:52:31.434Z,45.54
2022-09-17T12:55:15.682Z,44.75
2022-09-17T12:57:53.178Z,42.54
2022-09-17T13:00:21.513Z,43.87
2022-09-17T13:03:00.465Z,44.45
2022-09-17T13:05:57.106Z,44.50
2022-09-17T13:08:52.728Z,43.71
2022-09-17T13:11:43.734Z,44.34
2022-09-17T13:14:20.093Z,44.46
2022-09-17T13:16:54.662Z,44.53
2022-09-17T13:19:40.610Z,43.81
2022-09-17T13:22:19.503Z,43.67
2022-09-17T13:24:49.406Z,43.81
2022-09-17T13:27:24.316Z,43.41
2022-09-17T13:30:05.578Z,43.12
2022-09-17T13:32:51.173Z,42.48
2022-09-17T13:35:53.346Z,42.86
2022-09-17T13:38:24.329Z,42.83
2022-09-17T13:40:53.277Z,43.10
2022-09-17T13:43:27.067Z,43.29
2022-09-17T13:46:12.759Z,41.76
2022-09-17T13:48:50.532Z,43.07
2022-09-17T13:52:00.794Z,42.88
2022-09-17T13:54:39.696Z,42.40
2022-09-17T13:57:13.671Z,42.58
2022-09-17T13:59:54.574Z,42.90
2022-09-17T14:02:37.746Z,43.13
2022-09-17T14:05:26.501Z,41.01
2022-09-17T14:08:12.872Z,42.74
2022-09-17T14:10:47.076Z,42.59
2022-09-17T14:13:28.001Z,42.84
2022-09-17T14:16:03.943Z,42.96
2022-09-17T14:18:38.384Z,41.76
2022-09-17T14:21:14.481Z,42.97
2022-09-17T14:23:47.430Z,42.52
2022-09-17T14:26:26.782Z,40.95
2022-09-17T14:29:03.537Z,42.12
2022-09-17T14:31:35.745Z,42.33
2022-09-17T14:34:05.800Z,41.77
2022-09-17T14:36:38.724Z,40.20
2022-09-17T14:39:11.585Z,41.06
2022-09-17T14:41:45.721Z,39.71
2022-09-17T14:44:16.562Z,40.65
2022-09-17T14:46:50.204Z,39.27
2022-09-17T14:49:22.749Z,40.42
2022-09-17T14:51:51.030Z,41.93
2022-09-17T14:54:24.861Z,40.89
2022-09-17T14:57:01.453Z,41.81
2022-09-17T14:59:47.136Z,40.47
2022-09-17T15:02:30.236Z,41.18
2022-09-17T15:04:58.573Z,41.61
2022-09-17T15:07:26.478Z,41.08
2022-09-17T15:09:56.070Z,40.14
2022-09-17T15:12:30.756Z,39.50
2022-09-17T15:14:59.378Z,39.74
2022-09-17T15:17:27.218Z,39.41
2022-09-17T15:19:58.433Z,39.58
2022-09-17T15:22:30.686Z,39.86
2022-09-17T15:25:02.790Z,39.99
2022-09-17T15:27:35.766Z,40.74
2022-09-17T15:30:06.315Z,40.19
2022-09-17T15:32:34.731Z,40.40
2022-09-17T15:35:20.154Z,39.67
2022-09-17T15:38:11.598Z,40.21
2022-09-17T15:40:40.951Z,39.66
2022-09-17T15:43:18.597Z,39.66
2022-09-17T15:45:46.405Z,40.95
2022-09-17T15:48:25.836Z,39.02
2022-09-17T15:50:55.625Z,39.70
2022-09-17T15:53:26.073Z,40.11
2022-09-17T15:56:04.064Z,40.01
2022-09-17T15:58:38.850Z,39.80
2022-09-17T16:01:54.516Z,40.31
2022-09-17T16:04:24.853Z,40.36
2022-09-17T16:07:01.276Z,40.32
2022-09-17T16:09:49.839Z,39.51
2022-09-17T16:12:20.354Z,41.31
2022-09-17T16:14:51.678Z,40.81
2022-09-17T16:17:43.908Z,41.64
2022-09-17T16:20:17.618Z,41.83
2022-09-17T16:22:47.823Z,41.80
2022-09-17T16:25:16.394Z,42.31
2022-09-17T16:27:51.362Z,42.77
2022-09-17T16:30:22.515Z,42.76
2022-09-17T16:32:50.670Z,43.52
2022-09-17T16:35:20.322Z,43.37
2022-09-17T16:37:50.192Z,43.62
2022-09-17T16:40:18.413Z,43.06
2022-09-17T16:42:46.518Z,43.38
2022-09-17T16:45:14.570Z,44.40
2022-09-17T16:47:44.824Z,44.53
2022-09-17T16:50:14.978Z,44.99
2022-09-17T16:52:42.758Z,44.89
2022-09-17T16:55:11.617Z,44.65
2022-09-17T16:57:39.337Z,44.49
2022-09-17T17:00:11.284Z,44.56
2022-09-17T17:02:39.116Z,44.46
2022-09-17T17:05:10.524Z,44.88
2022-09-17T17:07:38.529Z,45.03
2022-09-17T17:10:08.950Z,45.57
2022-09-17T17:12:37.454Z,45.63
2022-09-17T17:15:06.902Z,45.48
2022-09-17T17:17:35.770Z,45.91
2022-09-17T17:20:05.682Z,46.17
2022-09-17T17:22:34.801Z,46.32
2022-09-17T17:25:02.556Z,46.17
2022-09-17T17:27:30.610Z,46.74
2022-09-17T17:29:58.426Z,47.07
2022-09-17T17:32:26.533Z,47.28
2022-09-17T17:34:54.696Z,47.90
2022-09-17T17:37:23.294Z,48.02
2022-09-17T17:39:52.393Z,48.48
2022-09-17T17:42:20.161Z,48.98
2022-09-17T17:44:48.423Z,49.70
2022-09-17T17:47:16.132Z,49.72
2022-09-17T17:49:44.485Z,50.52
2022-09-17T17:52:12.242Z,50.32
2022-09-17T17:54:39.978Z,50.67
2022-09-17T17:57:09.061Z,51.04
2022-09-17T17:59:36.746Z,50.95
2022-09-17T18:02:04.968Z,50.82
2022-09-17T18:04:32.790Z,51.41
2022-09-17T18:07:00.549Z,52.13
2022-09-17T18:09:28.362Z,52.10
2022-09-17T18:11:56.054Z,52.52
2022-09-17T18:14:25.193Z,52.79
2022-09-17T18:16:52.943Z,53.76
2022-09-17T18:19:21.124Z,54.27
2022-09-17T18:21:48.806Z,53.70
2022-09-17T18:24:16.586Z,54.30
2022-09-17T18:26:45.067Z,56.17
2022-09-17T18:29:13.984Z,56.13
2022-09-17T18:31:44.593Z,56.38
2022-09-17T18:34:14.430Z,56.91
2022-09-17T18:36:47.578Z,57.44
2022-09-17T18:39:57.338Z,57.79
2022-09-17T18:42:06.373Z,58.21
2022-09-17T18:44:34.133Z,59.00
2022-09-17T18:47:03.161Z,59.19
2022-09-17T18:49:30.897Z,59.90
2022-09-17T18:51:58.638Z,60.58
2022-09-17T18:54:26.408Z,59.48
2022-09-17T18:56:54.182Z,61.01
2022-09-17T18:59:21.889Z,61.18
2022-09-17T19:01:49.681Z,60.24
2022-09-17T19:04:18.795Z,60.34
2022-09-17T19:06:46.732Z,61.09
2022-09-17T19:09:14.543Z,61.81
2022-09-17T19:11:42.208Z,62.15
2022-09-17T19:14:11.716Z,62.45
2022-09-17T19:16:39.577Z,63.49
2022-09-17T19:19:07.328Z,64.11
2022-09-17T19:21:36.417Z,64.29
2022-09-17T19:24:04.577Z,63.80
2022-09-17T19:26:32.340Z,63.45
2022-09-17T19:29:01.267Z,65.43
2022-09-17T19:31:29.443Z,63.97
2022-09-17T19:33:58.425Z,65.43
2022-09-17T19:36:26.294Z,66.04
2022-09-17T19:38:58.705Z,65.84
2022-09-17T19:41:26.536Z,66.47
2022-09-17T19:43:56.799Z,66.38
2022-09-17T19:46:26.283Z,66.49
2022-09-17T19:48:55.598Z,67.17
2022-09-17T19:51:25.482Z,68.10
2022-09-17T19:53:53.704Z,68.30
2022-09-17T19:56:24.870Z,69.13
2022-09-17T19:58:52.710Z,69.60
2022-09-17T20:01:21.020Z,69.75
2022-09-17T20:03:49.204Z,68.72
2022-09-17T20:06:19.490Z,68.56
2022-09-17T20:08:48.150Z,68.14
2022-09-17T20:11:17.175Z,70.34
2022-09-17T20:13:46.332Z,70.58
2022-09-17T20:16:16.880Z,69.50
2022-09-17T20:18:44.831Z,70.12
2022-09-17T20:21:14.127Z,71.37
2022-09-17T20:23:42.005Z,71.39
2022-09-17T20:26:10.065Z,71.39
2022-09-17T20:28:37.861Z,71.46
2022-09-17T20:31:09.197Z,72.10
2022-09-17T20:33:37.118Z,72.35
2022-09-17T20:36:06.957Z,73.09
2022-09-17T20:41:23.302Z,71.79
2022-09-17T20:43:53.210Z,72.18
2022-09-17T20:46:28.634Z,72.11
2022-09-17T20:48:57.531Z,71.97
2022-09-17T20:51:26.996Z,72.16
2022-09-17T20:53:54.827Z,72.79
2022-09-17T20:56:24.429Z,73.22
2022-09-17T20:59:01.336Z,72.12
2022-09-17T21:01:34.514Z,72.84
2022-09-17T21:04:03.620Z,72.93
2022-09-17T21:06:33.001Z,73.03
2022-09-17T21:09:01.273Z,75.11
2022-09-17T21:11:30.887Z,74.07
2022-09-17T21:13:59.103Z,75.26
2022-09-17T21:16:27.062Z,74.87
2022-09-17T21:18:58.760Z,75.00
2022-09-17T21:21:27.226Z,74.82
2022-09-17T21:23:55.271Z,76.45
2022-09-17T21:26:25.049Z,76.17
2022-09-17T21:28:55.225Z,75.71
2022-09-17T21:31:28.412Z,75.21
2022-09-17T21:34:02.215Z,75.59
2022-09-17T21:36:32.312Z,75.75
2022-09-17T21:39:02.038Z,76.37
2022-09-17T21:41:30.478Z,76.41
2022-09-17T21:43:58.801Z,77.62
2022-09-17T21:46:28.181Z,78.43
2022-09-17T21:48:57.509Z,78.24
2022-09-17T21:51:30.331Z,77.58
2022-09-17T21:54:00.539Z,77.32
2022-09-17T21:56:29.329Z,79.24
2022-09-17T21:58:59.259Z,81.02
2022-09-17T22:01:31.029Z,80.31
2022-09-17T22:04:00.123Z,81.93
2022-09-17T22:06:30.913Z,82.44
2022-09-17T22:09:00.987Z,82.35
2022-09-17T22:11:31.243Z,83.59
2022-09-17T22:14:04.937Z,82.25
2022-09-17T22:16:35.912Z,82.78
2022-09-17T22:19:04.936Z,83.27
2022-09-17T22:21:36.335Z,82.41
2022-09-17T22:24:05.670Z,82.92
2022-09-17T22:26:35.817Z,83.42
2022-09-17T22:29:06.341Z,84.75
2022-09-17T22:31:34.226Z,84.97
2022-09-17T22:34:02.669Z,86.38
2022-09-17T22:36:30.523Z,85.76
2022-09-17T22:38:59.932Z,85.97
2022-09-17T22:41:29.468Z,84.58
2022-09-17T22:43:58.907Z,84.70
2022-09-17T22:46:28.233Z,86.10
2022-09-17T22:48:56.183Z,85.17
2022-09-17T22:51:24.573Z,84.46
2022-09-17T22:53:52.656Z,85.95
2022-09-17T22:56:24.089Z,86.29
2022-09-17T22:58:52.498Z,86.77
2022-09-17T23:01:22.358Z,87.13
2022-09-17T23:03:52.150Z,87.70
2022-09-17T23:06:23.696Z,87.43
2022-09-17T23:08:51.846Z,86.86
2022-09-17T23:11:22.989Z,87.64
2022-09-17T23:13:52.218Z,86.68
2022-09-17T23:16:20.976Z,87.13
2022-09-17T23:18:48.702Z,87.29
2022-09-17T23:21:17.821Z,88.15
2022-09-17T23:23:47.533Z,89.15
2022-09-17T23:26:17.313Z,88.75
2022-09-17T23:28:46.401Z,87.03
2022-09-17T23:31:16.268Z,85.63
2022-09-17T23:33:44.644Z,87.47
2022-09-17T23:36:14.357Z,87.40
2022-09-17T23:38:42.677Z,89.04
2022-09-17T23:41:12.475Z,88.38
2022-09-17T23:43:40.620Z,90.51
2022-09-17T23:46:09.886Z,91.66
2022-09-17T23:48:37.642Z,91.25
2022-09-17T23:51:06.306Z,91.67
2022-09-17T23:53:34.990Z,92.77
2022-09-17T23:56:04.309Z,91.83
2022-09-17T23:58:32.245Z,91.80
